Time;durP1;ratioP1;P1;durP2;ratioP2;P2;SDS_P1;SDS_P2;PMS_P1;PMS_P2;Temp;Humidity;BMP_temperature;BMP_pressure;BME280_temperature;BME280_humidity;BME280_pressure;Samples;Min_cycle;Max_cycle;Signal;HPM_P1;HPM_P2
2022/04/03 00:00:06;;;;;;;25.00;15.40;;;-0.20;99.90;;;;;;5014622;28;20170;-58
2022/04/03 00:02:32;;;;;;;24.37;14.57;;;-0.20;99.90;;;;;;5015476;28;20171;-58
2022/04/03 00:04:58;;;;;;;24.73;15.80;;;-0.20;99.90;;;;;;5015393;28;20437;-58
2022/04/03 00:07:23;;;;;;;23.20;14.70;;;-0.20;99.90;;;;;;5017545;28;20842;-57
2022/04/03 00:09:49;;;;;;;25.40;14.77;;;-0.20;99.90;;;;;;5016785;28;20680;-58
2022/04/03 00:12:15;;;;;;;33.53;15.77;;;-0.20;99.90;;;;;;5012136;28;20213;-59
2022/04/03 00:14:40;;;;;;;24.00;15.10;;;-0.20;99.90;;;;;;5013528;28;20178;-58
2022/04/03 00:17:06;;;;;;;24.50;14.83;;;-0.20;99.90;;;;;;5011118;28;20205;-57
2022/04/03 00:19:32;;;;;;;22.43;13.37;;;-0.20;99.90;;;;;;5006997;28;20588;-58
2022/04/03 00:21:59;;;;;;;22.57;14.00;;;-0.20;99.90;;;;;;5024377;28;20167;-58
2022/04/03 00:24:25;;;;;;;21.53;13.40;;;-0.20;99.90;;;;;;5010325;28;20174;-57
2022/04/03 00:26:50;;;;;;;22.47;13.40;;;-0.20;99.90;;;;;;5014181;28;20453;-58
2022/04/03 00:29:16;;;;;;;24.53;13.80;;;-0.30;99.90;;;;;;5001596;28;20182;-58
2022/04/03 00:31:42;;;;;;;24.80;13.67;;;-0.30;99.90;;;;;;5018257;28;20183;-57
2022/04/03 00:34:07;;;;;;;21.70;14.23;;;-0.40;99.90;;;;;;5011162;28;20176;-58
2022/04/03 00:36:33;;;;;;;23.97;15.13;;;-0.40;99.90;;;;;;5011363;28;20186;-57
2022/04/03 00:38:59;;;;;;;21.97;14.23;;;-0.40;99.90;;;;;;5010976;28;20166;-58
2022/04/03 00:41:24;;;;;;;23.53;14.23;;;-0.40;99.90;;;;;;5012013;28;20180;-58
2022/04/03 00:43:51;;;;;;;27.27;16.43;;;-0.40;99.90;;;;;;5018728;28;20214;-58
2022/04/03 00:46:20;;;;;;;24.20;14.80;;;-0.40;99.90;;;;;;5002915;28;20179;-58
2022/04/03 00:48:47;;;;;;;24.97;15.40;;;-0.30;99.90;;;;;;5010581;28;20444;-58
2022/04/03 00:51:13;;;;;;;23.87;15.03;;;-0.30;99.90;;;;;;5008680;28;20442;-58
2022/04/03 00:53:39;;;;;;;27.60;13.90;;;-0.40;99.90;;;;;;5012818;28;20481;-59
2022/04/03 00:56:05;;;;;;;25.77;16.40;;;-0.30;99.90;;;;;;5003029;28;20468;-58
2022/04/03 00:58:32;;;;;;;28.00;15.77;;;-0.30;99.90;;;;;;5010046;28;20492;-59
2022/04/03 01:00:57;;;;;;;27.73;15.70;;;-0.30;99.90;;;;;;5014964;28;20428;-59
2022/04/03 01:03:23;;;;;;;28.33;15.80;;;-0.30;99.90;;;;;;5019126;28;20456;-58
2022/04/03 01:05:49;;;;;;;30.00;17.13;;;-0.30;99.90;;;;;;5006586;28;20249;-58
2022/04/03 01:08:15;;;;;;;27.40;15.93;;;-0.30;99.90;;;;;;5013175;28;20209;-59
2022/04/03 01:10:41;;;;;;;27.50;17.17;;;-0.30;99.90;;;;;;5009028;28;20205;-58
2022/04/03 01:13:07;;;;;;;25.50;16.40;;;-0.30;99.90;;;;;;5007666;28;20499;-58
2022/04/03 01:15:33;;;;;;;25.70;15.57;;;-0.30;99.90;;;;;;5011052;28;21015;-58
2022/04/03 01:17:59;;;;;;;31.97;16.73;;;-0.30;99.90;;;;;;5008833;28;20504;-59
2022/04/03 01:20:25;;;;;;;28.63;16.00;;;-0.30;99.90;;;;;;5012343;28;20943;-59
2022/04/03 01:22:51;;;;;;;26.73;15.90;;;-0.30;99.90;;;;;;5007307;28;20427;-58
2022/04/03 01:25:16;;;;;;;28.40;16.57;;;-0.30;99.90;;;;;;5006411;28;20456;-58
2022/04/03 01:27:42;;;;;;;25.63;15.30;;;-0.30;99.90;;;;;;5012223;28;20966;-59
2022/04/03 01:30:12;;;;;;;24.50;15.53;;;-0.30;99.90;;;;;;5004825;28;20209;-58
2022/04/03 01:32:38;;;;;;;25.77;15.17;;;-0.30;99.90;;;;;;5005533;28;20425;-59
2022/04/03 01:35:05;;;;;;;25.70;15.80;;;-0.30;99.90;;;;;;5008252;28;20433;-58
2022/04/03 01:37:31;;;;;;;25.10;15.70;;;-0.30;99.90;;;;;;5010803;28;20463;-59
2022/04/03 01:39:56;;;;;;;25.03;15.30;;;-0.30;99.90;;;;;;5006839;28;20426;-58
2022/04/03 01:42:22;;;;;;;24.07;14.57;;;-0.30;99.90;;;;;;5009915;28;20254;-58
2022/04/03 01:44:48;;;;;;;27.90;15.53;;;-0.40;99.90;;;;;;5015829;28;20173;-58
2022/04/03 01:47:13;;;;;;;30.13;17.00;;;-0.40;99.90;;;;;;5010071;28;20638;-57
2022/04/03 01:49:39;;;;;;;28.73;17.07;;;-0.40;99.90;;;;;;5006183;28;20678;-58
2022/04/03 01:52:05;;;;;;;29.70;17.10;;;-0.40;99.90;;;;;;5008259;28;20700;-59
2022/04/03 01:54:31;;;;;;;29.23;17.00;;;-0.40;99.90;;;;;;5005010;28;20191;-59
2022/04/03 01:56:56;;;;;;;26.07;16.23;;;-0.30;99.90;;;;;;5005692;28;20472;-57
2022/04/03 01:59:22;;;;;;;30.90;16.63;;;-0.30;99.90;;;;;;5011139;28;20436;-60
2022/04/03 02:01:48;;;;;;;26.73;16.67;;;-0.30;99.90;;;;;;5011161;28;20569;-59
2022/04/03 02:04:14;;;;;;;29.27;16.50;;;-0.30;99.90;;;;;;5004732;28;20178;-59
2022/04/03 02:06:40;;;;;;;27.77;16.20;;;-0.40;99.90;;;;;;5004878;28;20708;-60
2022/04/03 02:09:07;;;;;;;27.70;16.83;;;-0.40;99.90;;;;;;5000992;28;20787;-59
2022/04/03 02:11:34;;;;;;;24.80;14.60;;;-0.40;99.90;;;;;;5005723;28;20448;-57
2022/04/03 02:14:00;;;;;;;26.17;15.33;;;-0.40;99.90;;;;;;5007778;28;20483;-59
2022/04/03 02:16:26;;;;;;;29.20;16.60;;;-0.40;99.90;;;;;;5001755;28;20871;-58
2022/04/03 02:18:52;;;;;;;27.80;16.83;;;-0.50;99.90;;;;;;5014128;28;20209;-59
2022/04/03 02:21:17;;;;;;;27.77;16.13;;;-0.50;99.90;;;;;;5014221;28;20228;-58
2022/04/03 02:23:43;;;;;;;27.47;16.33;;;-0.50;99.90;;;;;;5016713;28;20182;-59
2022/04/03 02:26:09;;;;;;;26.00;15.23;;;-0.50;99.90;;;;;;5002132;28;20206;-58
2022/04/03 02:28:35;;;;;;;25.97;15.67;;;-0.50;99.90;;;;;;5016602;28;20547;-59
2022/04/03 02:31:01;;;;;;;27.47;14.60;;;-0.50;99.90;;;;;;5028126;28;20454;-59
2022/04/03 02:33:27;;;;;;;26.93;15.57;;;-0.50;99.90;;;;;;5013985;28;20181;-58
2022/04/03 02:35:52;;;;;;;27.67;15.60;;;-0.50;99.90;;;;;;5009827;28;20413;-58
2022/04/03 02:38:18;;;;;;;27.27;15.90;;;-0.50;99.90;;;;;;5021535;28;20210;-58
2022/04/03 02:40:44;;;;;;;25.53;15.13;;;-0.50;99.90;;;;;;5003232;28;20568;-59
2022/04/03 02:43:11;;;;;;;28.57;17.23;;;-0.50;99.90;;;;;;5005811;28;20195;-59
2022/04/03 02:45:38;;;;;;;27.73;15.87;;;-0.50;99.90;;;;;;5008256;28;20424;-58
2022/04/03 02:48:04;;;;;;;27.03;15.60;;;-0.50;99.90;;;;;;5019959;28;20459;-59
2022/04/03 02:50:30;;;;;;;29.27;16.10;;;-0.50;99.90;;;;;;5008243;28;21225;-57
2022/04/03 02:52:56;;;;;;;26.47;15.30;;;-0.50;99.90;;;;;;5002707;28;21005;-58
2022/04/03 02:55:25;;;;;;;27.57;15.90;;;-0.40;99.90;;;;;;5004774;28;20432;-59
2022/04/03 02:57:52;;;;;;;28.17;15.87;;;-0.50;99.90;;;;;;5011516;28;21034;-58
2022/04/03 03:00:19;;;;;;;23.63;14.63;;;-0.50;99.90;;;;;;5007194;28;20427;-58
2022/04/03 03:02:47;;;;;;;24.23;14.10;;;-0.40;99.90;;;;;;5005974;28;20457;-59
2022/04/03 03:05:14;;;;;;;20.50;12.83;;;-0.50;99.90;;;;;;5008132;28;20988;-59
2022/04/03 03:07:41;;;;;;;20.80;13.50;;;-0.50;99.90;;;;;;5011890;28;20515;-59
2022/04/03 03:10:09;;;;;;;22.53;13.47;;;-0.50;99.90;;;;;;5005547;28;20476;-59
2022/04/03 03:12:34;;;;;;;19.87;12.40;;;-0.50;99.90;;;;;;5008776;28;20467;-59
2022/04/03 03:15:00;;;;;;;23.63;13.83;;;-0.50;99.90;;;;;;5008252;28;20506;-58
2022/04/03 03:17:27;;;;;;;21.20;12.70;;;-0.40;99.90;;;;;;5003593;28;20262;-59
2022/04/03 03:19:53;;;;;;;22.30;13.60;;;-0.40;99.90;;;;;;5005160;28;20205;-58
2022/04/03 03:22:19;;;;;;;18.37;12.53;;;-0.40;99.90;;;;;;5005269;28;20433;-59
2022/04/03 03:24:45;;;;;;;19.07;11.70;;;-0.40;99.90;;;;;;5007647;28;20182;-59
2022/04/03 03:27:11;;;;;;;15.57;9.60;;;-0.40;99.90;;;;;;5003020;28;20457;-59
2022/04/03 03:29:36;;;;;;;14.30;9.40;;;-0.30;99.90;;;;;;5008460;28;20182;-59
2022/04/03 03:32:02;;;;;;;14.90;9.87;;;-0.30;99.90;;;;;;5008397;28;20270;-57
2022/04/03 03:34:28;;;;;;;18.00;10.87;;;-0.30;99.90;;;;;;5005819;28;20182;-59
2022/04/03 03:36:53;;;;;;;19.37;11.10;;;-0.40;99.90;;;;;;5006575;28;21165;-59
2022/04/03 03:39:19;;;;;;;21.57;13.27;;;-0.40;99.90;;;;;;5007184;28;20182;-58
2022/04/03 03:41:45;;;;;;;20.40;13.10;;;-0.40;99.90;;;;;;5008516;28;20179;-59
2022/04/03 03:44:11;;;;;;;19.03;12.60;;;-0.40;99.90;;;;;;5002762;28;20210;-58
2022/04/03 03:46:37;;;;;;;25.80;13.77;;;-0.40;99.90;;;;;;5009357;28;20651;-59
2022/04/03 03:49:03;;;;;;;19.97;12.80;;;-0.40;99.90;;;;;;5006041;28;20179;-59
2022/04/03 03:51:29;;;;;;;20.30;11.70;;;-0.40;99.90;;;;;;5008556;28;20512;-59
2022/04/03 03:53:55;;;;;;;21.43;12.60;;;-0.40;99.90;;;;;;5004093;28;20538;-59
2022/04/03 03:56:20;;;;;;;20.63;12.40;;;-0.40;99.90;;;;;;5008140;28;20192;-59
2022/04/03 03:58:46;;;;;;;19.90;12.87;;;-0.50;99.90;;;;;;5005025;28;20293;-58
2022/04/03 04:01:12;;;;;;;21.77;12.60;;;-0.50;99.90;;;;;;5023184;28;20175;-59
2022/04/03 04:03:38;;;;;;;18.50;11.77;;;-0.50;99.90;;;;;;5000858;28;20190;-59
2022/04/03 04:06:04;;;;;;;19.70;12.23;;;-0.50;99.90;;;;;;5017213;28;20428;-59
2022/04/03 04:08:29;;;;;;;18.30;12.20;;;-0.50;99.90;;;;;;5009557;28;20214;-60
2022/04/03 04:10:57;;;;;;;16.67;10.80;;;-0.50;99.90;;;;;;5006601;28;20703;-59
2022/04/03 04:13:22;;;;;;;17.57;11.10;;;-0.50;99.90;;;;;;5004022;28;20187;-59
2022/04/03 04:15:48;;;;;;;20.97;11.47;;;-0.50;99.90;;;;;;5009073;28;20484;-59
2022/04/03 04:18:13;;;;;;;18.07;11.77;;;-0.40;99.90;;;;;;5016897;28;20206;-58
2022/04/03 04:20:39;;;;;;;17.60;11.43;;;-0.40;99.90;;;;;;5011942;28;20202;-58
2022/04/03 04:23:05;;;;;;;18.00;11.30;;;-0.40;99.90;;;;;;5008635;28;20194;-57
2022/04/03 04:25:31;;;;;;;16.73;11.33;;;-0.40;99.90;;;;;;5022190;28;20706;-59
2022/04/03 04:27:57;;;;;;;16.37;10.37;;;-0.40;99.90;;;;;;5020687;28;20288;-58
2022/04/03 04:30:24;;;;;;;21.50;12.57;;;-0.30;99.90;;;;;;5015605;28;20460;-57
2022/04/03 04:32:49;;;;;;;17.50;10.37;;;-0.30;99.90;;;;;;5007089;28;20539;-59
2022/04/03 04:35:15;;;;;;;20.03;12.37;;;-0.30;99.90;;;;;;5014888;28;20512;-58
2022/04/03 04:37:42;;;;;;;16.20;10.60;;;-0.30;99.90;;;;;;5010090;28;20704;-60
2022/04/03 04:40:09;;;;;;;17.57;11.07;;;-0.30;99.90;;;;;;5004638;28;20169;-59
2022/04/03 04:42:35;;;;;;;19.00;11.40;;;-0.30;99.90;;;;;;5011928;28;20426;-59
2022/04/03 04:45:00;;;;;;;14.50;10.00;;;-0.30;99.90;;;;;;5022912;28;20795;-60
2022/04/03 04:47:26;;;;;;;14.93;10.40;;;-0.20;99.90;;;;;;5008317;28;20352;-58
2022/04/03 04:49:52;;;;;;;16.43;11.60;;;-0.30;99.90;;;;;;5010870;28;20445;-59
2022/04/03 04:52:17;;;;;;;18.03;11.50;;;-0.30;99.90;;;;;;5012356;28;20174;-59
2022/04/03 04:54:43;;;;;;;19.87;12.40;;;-0.30;99.90;;;;;;5018023;28;20190;-59
2022/04/03 04:57:08;;;;;;;20.00;12.70;;;-0.30;99.90;;;;;;5017298;28;20209;-58
2022/04/03 04:59:34;;;;;;;19.73;12.20;;;-0.30;99.90;;;;;;5008866;28;20179;-59
2022/04/03 05:02:00;;;;;;;20.97;12.70;;;-0.40;99.90;;;;;;5006198;28;20174;-59
2022/04/03 05:04:26;;;;;;;18.73;11.80;;;-0.40;99.90;;;;;;5008196;28;20200;-58
2022/04/03 05:06:53;;;;;;;19.43;11.87;;;-0.40;99.90;;;;;;5009827;28;20613;-58
2022/04/03 05:09:20;;;;;;;19.40;11.83;;;-0.40;99.90;;;;;;5011934;28;20451;-59
2022/04/03 05:11:46;;;;;;;20.80;12.53;;;-0.40;99.90;;;;;;5006154;28;20429;-58
2022/04/03 05:14:13;;;;;;;20.47;11.93;;;-0.40;99.90;;;;;;5008289;28;21007;-60
2022/04/03 05:16:39;;;;;;;18.80;12.63;;;-0.40;99.90;;;;;;5012235;28;20428;-59
2022/04/03 05:19:05;;;;;;;23.20;12.20;;;-0.40;99.90;;;;;;5008236;28;20473;-60
2022/04/03 05:21:30;;;;;;;18.43;11.50;;;-0.40;99.90;;;;;;5008900;28;20662;-59
2022/04/03 05:23:56;;;;;;;22.07;12.80;;;-0.40;99.90;;;;;;5009166;28;20175;-60
2022/04/03 05:26:22;;;;;;;20.57;12.40;;;-0.40;99.90;;;;;;5011545;28;20186;-59
2022/04/03 05:28:48;;;;;;;20.83;11.93;;;-0.30;99.90;;;;;;4998178;28;20207;-60
2022/04/03 05:31:14;;;;;;;19.03;12.60;;;-0.30;99.90;;;;;;4997714;28;20178;-59
2022/04/03 05:33:40;;;;;;;15.90;10.93;;;-0.30;99.90;;;;;;5008996;28;20437;-59
2022/04/03 05:36:06;;;;;;;14.60;10.17;;;-0.30;99.90;;;;;;5010537;28;20728;-59
2022/04/03 05:38:32;;;;;;;16.43;10.80;;;-0.30;99.90;;;;;;5006668;28;20461;-60
2022/04/03 05:40:57;;;;;;;20.70;11.40;;;-0.30;99.90;;;;;;5010460;28;20174;-59
2022/04/03 05:43:23;;;;;;;15.40;10.20;;;-0.30;99.90;;;;;;5015124;28;20191;-59
2022/04/03 05:45:49;;;;;;;18.97;12.20;;;-0.20;99.90;;;;;;5013548;28;20185;-59
2022/04/03 05:48:15;;;;;;;18.33;12.53;;;-0.20;99.90;;;;;;5009399;28;20544;-60
2022/04/03 05:50:40;;;;;;;20.23;12.40;;;-0.20;99.90;;;;;;5010027;28;20273;-59
2022/04/03 05:53:06;;;;;;;17.20;10.80;;;-0.20;99.90;;;;;;5008074;28;20640;-59
2022/04/03 05:55:32;;;;;;;23.80;13.03;;;-0.20;99.90;;;;;;5007713;28;20191;-59
2022/04/03 05:57:58;;;;;;;24.83;14.60;;;-0.10;99.90;;;;;;5011394;28;20217;-59
2022/04/03 06:00:24;;;;;;;21.70;13.77;;;-0.10;99.90;;;;;;5013201;28;20444;-60
2022/04/03 06:02:51;;;;;;;21.27;13.33;;;-0.10;99.90;;;;;;5014842;28;20659;-60
2022/04/03 06:05:19;;;;;;;17.17;12.10;;;-0.10;99.90;;;;;;5003878;28;20453;-59
2022/04/03 06:07:44;;;;;;;17.23;11.90;;;-0.10;99.90;;;;;;5009671;28;20538;-59
2022/04/03 06:10:10;;;;;;;17.90;11.73;;;0.00;99.90;;;;;;5011166;28;20950;-60
2022/04/03 06:12:36;;;;;;;15.43;11.10;;;0.00;99.90;;;;;;5012661;28;20202;-59
2022/04/03 06:15:02;;;;;;;17.37;10.70;;;0.00;99.90;;;;;;5010024;28;20186;-58
2022/04/03 06:17:28;;;;;;;19.67;10.93;;;0.00;99.90;;;;;;5022426;28;20216;-60
2022/04/03 06:19:53;;;;;;;20.30;11.60;;;0.10;99.90;;;;;;5014349;28;21815;-58
2022/04/03 06:22:19;;;;;;;23.53;13.50;;;0.10;99.90;;;;;;5009420;28;20174;-59
2022/04/03 06:24:45;;;;;;;19.00;12.57;;;0.10;99.90;;;;;;5011042;28;20528;-59
2022/04/03 06:27:10;;;;;;;16.10;10.00;;;0.10;99.90;;;;;;5019258;28;20201;-59
2022/04/03 06:29:36;;;;;;;16.80;11.70;;;0.20;99.90;;;;;;5014544;28;20177;-58
2022/04/03 06:32:02;;;;;;;18.67;11.83;;;0.20;99.90;;;;;;5005441;28;20689;-59
2022/04/03 06:34:27;;;;;;;17.50;10.60;;;0.20;99.90;;;;;;5009135;28;20185;-60
2022/04/03 06:36:53;;;;;;;18.17;11.30;;;0.30;99.90;;;;;;5011586;28;20233;-59
2022/04/03 06:39:19;;;;;;;16.40;11.33;;;0.30;99.90;;;;;;5019005;28;20254;-59
2022/04/03 06:41:44;;;;;;;16.03;10.73;;;0.40;99.90;;;;;;5018808;28;20192;-59
2022/04/03 06:44:10;;;;;;;19.33;12.50;;;0.40;99.90;;;;;;5003886;28;20183;-59
2022/04/03 06:46:36;;;;;;;12.87;9.97;;;0.40;99.90;;;;;;5008981;28;20797;-60
2022/04/03 06:49:01;;;;;;;17.90;11.80;;;0.50;99.90;;;;;;5010215;28;20183;-60
2022/04/03 06:51:27;;;;;;;15.80;10.70;;;0.50;99.90;;;;;;5011120;28;20222;-58
2022/04/03 06:53:53;;;;;;;19.93;12.00;;;0.50;99.90;;;;;;5002065;28;20663;-58
2022/04/03 06:56:19;;;;;;;17.10;11.17;;;0.50;99.90;;;;;;5018253;28;20184;-59
2022/04/03 06:58:45;;;;;;;17.20;10.83;;;0.60;99.90;;;;;;5008750;28;20276;-57
2022/04/03 07:01:11;;;;;;;16.60;11.20;;;0.60;99.90;;;;;;5005613;28;20937;-59
2022/04/03 07:03:36;;;;;;;17.13;10.23;;;0.60;99.90;;;;;;5011919;28;20528;-59
2022/04/03 07:06:02;;;;;;;15.63;11.13;;;0.60;99.90;;;;;;5010787;28;20182;-60
2022/04/03 07:08:28;;;;;;;16.00;11.57;;;0.70;99.90;;;;;;5007576;28;20240;-60
2022/04/03 07:10:55;;;;;;;19.13;11.83;;;0.70;99.90;;;;;;5007948;28;20945;-60
2022/04/03 07:13:21;;;;;;;18.30;10.20;;;0.70;99.90;;;;;;5017293;28;20277;-60
2022/04/03 07:15:49;;;;;;;15.97;10.83;;;0.80;99.90;;;;;;5023905;28;20522;-59
2022/04/03 07:18:16;;;;;;;17.23;12.37;;;0.80;99.90;;;;;;5020622;28;20217;-59
2022/04/03 07:20:45;;;;;;;22.63;12.23;;;0.80;99.90;;;;;;5014821;28;20444;-59
2022/04/03 07:23:10;;;;;;;15.20;9.70;;;0.80;99.90;;;;;;5007915;28;20436;-57
2022/04/03 07:25:36;;;;;;;17.40;11.33;;;0.80;99.90;;;;;;5012212;28;20424;-59
2022/04/03 07:28:02;;;;;;;16.90;11.80;;;0.90;99.90;;;;;;5007647;28;20194;-57
2022/04/03 07:30:27;;;;;;;16.70;11.40;;;0.90;99.90;;;;;;5007008;28;20188;-59
2022/04/03 07:32:53;;;;;;;19.63;10.80;;;1.00;99.90;;;;;;5008847;28;20170;-59
2022/04/03 07:35:19;;;;;;;15.53;11.60;;;1.10;99.90;;;;;;5005867;28;20175;-59
2022/04/03 07:37:45;;;;;;;20.17;11.70;;;1.20;99.90;;;;;;5006414;28;20460;-60
2022/04/03 07:40:11;;;;;;;15.00;10.60;;;1.40;99.90;;;;;;5002472;28;20495;-59
2022/04/03 07:42:39;;;;;;;18.00;11.20;;;1.50;99.90;;;;;;5001501;28;20178;-59
2022/04/03 07:45:05;;;;;;;17.33;11.13;;;1.60;99.90;;;;;;5003786;28;20433;-60
2022/04/03 07:47:31;;;;;;;14.63;10.37;;;1.70;99.90;;;;;;5009695;28;20475;-59
2022/04/03 07:49:58;;;;;;;14.70;10.50;;;1.70;99.90;;;;;;5018361;28;20425;-58
2022/04/03 07:52:24;;;;;;;16.70;10.80;;;1.80;99.40;;;;;;5012678;28;20176;-60
2022/04/03 07:54:50;;;;;;;18.13;10.97;;;1.90;97.80;;;;;;5011616;28;20460;-60
2022/04/03 07:57:19;;;;;;;14.50;10.10;;;2.00;97.20;;;;;;5007323;28;20204;-60
2022/04/03 07:59:45;;;;;;;15.20;10.13;;;2.10;96.30;;;;;;5014436;28;20181;-60
2022/04/03 08:02:11;;;;;;;16.23;10.67;;;2.20;94.70;;;;;;5007559;28;20484;-60
2022/04/03 08:04:37;;;;;;;14.03;9.57;;;2.20;91.80;;;;;;5010994;28;20443;-60
2022/04/03 08:07:02;;;;;;;13.10;9.00;;;2.10;91.40;;;;;;5007400;28;20711;-59
2022/04/03 08:09:28;;;;;;;15.23;10.10;;;2.10;91.30;;;;;;5015790;28;20204;-60
2022/04/03 08:11:54;;;;;;;15.27;9.87;;;2.00;90.90;;;;;;5014001;28;20237;-59
2022/04/03 08:14:19;;;;;;;18.47;11.00;;;2.00;90.40;;;;;;5014457;28;20543;-59
2022/04/03 08:16:45;;;;;;;16.53;10.70;;;1.90;91.70;;;;;;5017228;28;20210;-59
2022/04/03 08:19:11;;;;;;;14.30;9.77;;;1.90;94.90;;;;;;5024877;28;20234;-59
2022/04/03 08:21:37;;;;;;;18.27;11.40;;;1.80;94.80;;;;;;5013431;28;20185;-59
2022/04/03 08:24:03;;;;;;;12.87;9.67;;;1.80;95.10;;;;;;5020194;28;20594;-59
2022/04/03 08:26:29;;;;;;;14.90;10.63;;;1.80;95.30;;;;;;5017710;28;20421;-58
2022/04/03 08:28:55;;;;;;;16.23;9.53;;;1.80;94.00;;;;;;5025657;28;20305;-59
2022/04/03 08:31:23;;;;;;;11.57;8.60;;;1.80;92.70;;;;;;5011325;28;20168;-57
2022/04/03 08:33:52;;;;;;;14.87;9.33;;;1.80;92.80;;;;;;5007418;28;20435;-58
2022/04/03 08:36:18;;;;;;;13.93;7.97;;;1.70;90.40;;;;;;5010240;28;20525;-60
2022/04/03 08:38:44;;;;;;;11.23;7.80;;;1.60;88.80;;;;;;5003327;28;20475;-59
2022/04/03 08:41:10;;;;;;;13.67;8.70;;;1.50;87.90;;;;;;5008817;28;20434;-58
2022/04/03 08:43:36;;;;;;;11.30;8.07;;;1.50;89.60;;;;;;5003036;28;20438;-57
2022/04/03 08:46:05;;;;;;;12.90;8.53;;;1.50;91.90;;;;;;5002146;28;20444;-58
2022/04/03 08:48:32;;;;;;;12.73;8.73;;;1.50;89.30;;;;;;5011154;28;20706;-58
2022/04/03 08:51:02;;;;;;;13.57;8.10;;;1.60;89.10;;;;;;5001882;28;20438;-59
2022/04/03 08:53:30;;;;;;;10.53;8.17;;;1.60;88.40;;;;;;5004541;28;20434;-60
2022/04/03 08:55:56;;;;;;;10.60;7.73;;;1.60;89.20;;;;;;5003625;28;20476;-60
2022/04/03 08:58:22;;;;;;;8.40;7.27;;;1.70;87.60;;;;;;4999196;28;20536;-61
2022/04/03 09:00:48;;;;;;;9.30;7.47;;;1.70;86.10;;;;;;4999412;28;20430;-60
2022/04/03 09:03:13;;;;;;;12.77;8.40;;;1.70;82.80;;;;;;5005188;28;20888;-62
2022/04/03 09:05:41;;;;;;;11.67;8.40;;;1.70;83.80;;;;;;5002120;28;20852;-56
2022/04/03 09:08:09;;;;;;;10.30;7.50;;;1.70;84.30;;;;;;5003511;28;20313;-60
2022/04/03 09:10:35;;;;;;;11.80;7.80;;;1.70;82.30;;;;;;5002192;28;20430;-62
2022/04/03 09:13:01;;;;;;;9.00;6.90;;;1.70;83.10;;;;;;5004759;28;20443;-61
2022/04/03 09:15:29;;;;;;;9.50;8.03;;;1.60;83.60;;;;;;5005556;28;20517;-61
2022/04/03 09:18:03;;;;;;;10.47;7.50;;;1.60;85.80;;;;;;5008129;28;20469;-60
2022/04/03 09:20:33;;;;;;;10.87;6.97;;;1.60;86.90;;;;;;5006475;28;20442;-60
2022/04/03 09:22:59;;;;;;;13.00;7.77;;;1.60;88.20;;;;;;5008178;28;20428;-60
2022/04/03 09:25:28;;;;;;;10.93;8.17;;;1.60;89.60;;;;;;5000328;28;20430;-61
2022/04/03 09:27:57;;;;;;;12.20;7.67;;;1.60;90.10;;;;;;5003883;28;20454;-61
2022/04/03 09:30:46;;;;;;;12.93;8.30;;;1.60;91.80;;;;;;5002493;28;21379;-61
2022/04/03 09:33:20;;;;;;;11.87;8.73;;;1.50;92.80;;;;;;5006730;28;20437;-59
2022/04/03 09:36:02;;;;;;;13.30;8.10;;;1.60;94.30;;;;;;5003346;28;20827;-60
2022/04/03 09:38:32;;;;;;;11.10;8.07;;;1.60;94.70;;;;;;5004482;28;20494;-60
2022/04/03 09:41:00;;;;;;;16.60;7.83;;;1.70;92.60;;;;;;5009381;28;20469;-59
2022/04/03 09:43:35;;;;;;;13.43;8.50;;;1.70;92.20;;;;;;5018927;28;20431;-63
2022/04/03 09:46:06;;;;;;;13.00;8.30;;;1.70;92.60;;;;;;4999443;28;20506;-61
2022/04/03 09:48:34;;;;;;;13.40;8.43;;;1.70;94.20;;;;;;5000883;28;20439;-60
2022/04/03 09:51:21;;;;;;;13.00;7.90;;;1.70;96.80;;;;;;5004649;28;20438;-60
2022/04/03 09:53:50;;;;;;;13.30;8.20;;;1.70;96.50;;;;;;5003156;28;20525;-60
2022/04/03 09:56:28;;;;;;;14.43;9.00;;;1.80;97.10;;;;;;5003033;28;20426;-63
2022/04/03 09:58:53;;;;;;;12.97;9.10;;;1.80;97.30;;;;;;4999524;28;20462;-60
2022/04/03 10:01:42;;;;;;;13.27;8.47;;;1.80;96.80;;;;;;5000456;28;20784;-60
2022/04/03 10:04:14;;;;;;;14.03;9.80;;;1.90;95.20;;;;;;4998347;28;20711;-61
2022/04/03 10:06:42;;;;;;;15.70;9.13;;;2.00;97.00;;;;;;5002434;28;20965;-60
2022/04/03 10:09:11;;;;;;;14.80;8.57;;;2.10;95.30;;;;;;5001389;28;20436;-60
2022/04/03 10:11:38;;;;;;;11.60;8.50;;;2.20;95.20;;;;;;5002300;28;20839;-60
2022/04/03 10:14:06;;;;;;;11.17;7.80;;;2.20;92.90;;;;;;5002803;28;20428;-60
2022/04/03 10:16:31;;;;;;;15.97;8.80;;;2.20;90.80;;;;;;5000056;28;20454;-61
2022/04/03 10:18:58;;;;;;;12.53;9.00;;;2.20;90.60;;;;;;4997013;28;20502;-60
2022/04/03 10:21:40;;;;;;;12.53;8.70;;;2.10;89.60;;;;;;5000062;28;20575;-60
2022/04/03 10:24:15;;;;;;;14.53;9.23;;;2.00;90.60;;;;;;4999879;28;20430;-59
2022/04/03 10:26:42;;;;;;;12.47;8.60;;;2.00;91.20;;;;;;5001761;28;20430;-56
2022/04/03 10:29:10;;;;;;;18.30;9.27;;;2.00;92.30;;;;;;4995942;28;21034;-57
2022/04/03 10:31:40;;;;;;;16.93;9.07;;;2.00;94.50;;;;;;4994949;28;22234;-59
2022/04/03 10:34:10;;;;;;;11.97;8.53;;;2.00;94.40;;;;;;4988340;28;20468;-59
2022/04/03 10:36:37;;;;;;;13.80;8.43;;;2.00;92.70;;;;;;4990788;28;20482;-61
2022/04/03 10:39:10;;;;;;;13.97;9.07;;;2.00;90.70;;;;;;4986931;28;20467;-61
2022/04/03 10:41:37;;;;;;;13.70;8.70;;;2.00;92.00;;;;;;4991607;28;20433;-59
2022/04/03 10:44:19;;;;;;;13.17;9.00;;;2.00;91.80;;;;;;4998584;28;20988;-59
2022/04/03 10:47:03;;;;;;;14.00;9.50;;;2.10;91.90;;;;;;5010065;28;20549;-60
2022/04/03 10:49:46;;;;;;;12.20;8.57;;;2.10;91.20;;;;;;5001955;28;20817;-60
2022/04/03 10:52:24;;;;;;;10.40;7.87;;;2.00;84.20;;;;;;4999158;28;21217;-61
2022/04/03 10:54:52;;;;;;;11.30;7.63;;;1.90;85.10;;;;;;5000115;28;20458;-60
2022/04/03 10:57:31;;;;;;;12.60;8.00;;;1.80;86.00;;;;;;4999679;28;21007;-60
2022/04/03 11:00:12;;;;;;;11.23;8.10;;;1.80;90.90;;;;;;5001753;28;20437;-61
2022/04/03 11:02:39;;;;;;;11.50;7.37;;;1.70;91.30;;;;;;4998272;28;20503;-61
2022/04/03 11:05:26;;;;;;;12.20;8.77;;;1.60;89.30;;;;;;4998042;28;20461;-60
2022/04/03 11:07:52;;;;;;;12.33;8.57;;;1.50;91.30;;;;;;4995994;28;21049;-60
2022/04/03 11:10:42;;;;;;;13.10;8.07;;;1.50;91.10;;;;;;4994943;28;20435;-60
2022/04/03 11:13:08;;;;;;;14.03;7.70;;;1.50;91.00;;;;;;5017352;28;20212;-59
2022/04/03 11:15:51;;;;;;;11.67;6.93;;;1.50;90.00;;;;;;4995771;28;20433;-59
2022/04/03 11:18:29;;;;;;;10.83;7.20;;;1.40;90.40;;;;;;4994708;28;21037;-60
2022/04/03 11:21:19;;;;;;;18.37;8.90;;;1.40;86.90;;;;;;4996556;28;20432;-60
2022/04/03 11:24:06;;;;;;;11.03;7.47;;;1.30;89.90;;;;;;4992887;28;20469;-60
2022/04/03 11:26:33;;;;;;;11.73;7.73;;;1.30;90.70;;;;;;5006062;28;20442;-60
2022/04/03 11:28:59;;;;;;;10.73;7.40;;;1.30;90.60;;;;;;4996989;28;20436;-59
2022/04/03 11:33:57;;;;;;;10.47;8.10;;;1.50;88.90;;;;;;4987386;28;20596;-55
2022/04/03 11:36:30;;;;;;;12.90;8.60;;;1.50;90.00;;;;;;4998957;28;20870;-54
2022/04/03 11:38:58;;;;;;;12.40;8.20;;;1.60;90.10;;;;;;5000930;28;20914;-51
2022/04/03 11:41:28;;;;;;;13.70;8.30;;;1.70;89.60;;;;;;4996964;28;20530;-56
2022/04/03 11:44:00;;;;;;;9.77;7.20;;;1.80;91.50;;;;;;4978564;28;20431;-59
2022/04/03 11:46:45;;;;;;;12.57;8.00;;;1.90;89.20;;;;;;4980121;28;20443;-56
2022/04/03 11:49:13;;;;;;;9.30;7.27;;;2.00;85.40;;;;;;4962421;28;20446;-53
2022/04/03 11:51:39;;;;;;;11.37;7.63;;;2.10;84.70;;;;;;4978693;28;20775;-52
2022/04/03 11:54:05;;;;;;;8.60;6.73;;;2.20;83.40;;;;;;4990213;28;20436;-55
2022/04/03 11:56:35;;;;;;;9.83;6.40;;;2.20;80.40;;;;;;4977136;28;20449;-55
2022/04/03 11:59:01;;;;;;;14.93;5.93;;;2.30;84.00;;;;;;4977018;28;20713;-56
2022/04/03 12:01:35;;;;;;;10.00;5.93;;;2.40;78.40;;;;;;4982652;28;20516;-55
2022/04/03 12:04:14;;;;;;;8.23;6.23;;;2.50;76.50;;;;;;4975678;28;20435;-61
2022/04/03 12:06:43;;;;;;;8.83;5.13;;;2.50;73.90;;;;;;4979568;28;20436;-56
2022/04/03 12:09:16;;;;;;;10.33;5.77;;;2.40;70.50;;;;;;4977996;28;20554;-56
2022/04/03 12:11:51;;;;;;;6.73;5.53;;;2.50;67.50;;;;;;4980225;28;20427;-57
2022/04/03 12:14:30;;;;;;;12.47;5.77;;;2.50;66.20;;;;;;4976426;28;20428;-55
2022/04/03 12:17:04;;;;;;;8.80;6.07;;;2.40;65.20;;;;;;4982903;28;20517;-59
2022/04/03 12:19:34;;;;;;;9.10;6.20;;;2.40;65.30;;;;;;4979610;28;20443;-58
2022/04/03 12:22:04;;;;;;;8.90;6.00;;;2.40;65.60;;;;;;4982765;28;20449;-57
2022/04/03 12:24:31;;;;;;;11.23;6.33;;;2.40;65.00;;;;;;4975572;28;20528;-58
2022/04/03 12:27:02;;;;;;;7.90;5.73;;;2.50;65.50;;;;;;4971417;28;20483;-56
2022/04/03 12:29:35;;;;;;;8.10;5.87;;;2.50;64.90;;;;;;4976862;28;20527;-54
2022/04/03 12:32:05;;;;;;;10.63;6.90;;;2.50;65.10;;;;;;4954894;28;21616;-58
2022/04/03 12:34:34;;;;;;;10.67;6.80;;;2.60;67.00;;;;;;4975600;28;20424;-60
2022/04/03 12:37:02;;;;;;;10.17;7.53;;;2.60;66.50;;;;;;4976373;28;20526;-60
2022/04/03 12:39:38;;;;;;;8.27;6.00;;;2.70;65.50;;;;;;4981322;28;20555;-56